sensor_id;sensor_type;location;lat;lon;timestamp;temperature;humidity
40434;DHT22;26146;51.114;5.654;2022-12-07T00:02:39;6.10;99.90
40434;DHT22;26146;51.114;5.654;2022-12-07T00:06:42;6.20;99.90
40434;DHT22;26146;51.114;5.654;2022-12-07T00:10:46;6.20;99.90
40434;DHT22;26146;51.114;5.654;2022-12-07T00:14:47;5.80;99.90
40434;DHT22;26146;51.114;5.654;2022-12-07T00:18:48;5.70;99.90
40434;DHT22;26146;51.114;5.654;2022-12-07T00:22:49;5.80;99.90
40434;DHT22;26146;51.114;5.654;2022-12-07T00:26:52;5.80;99.90
40434;DHT22;26146;51.114;5.654;2022-12-07T00:31:09;5.80;99.90
40434;DHT22;26146;51.114;5.654;2022-12-07T00:35:10;5.60;99.90
40434;DHT22;26146;51.114;5.654;2022-12-07T00:39:14;5.60;99.90
40434;DHT22;26146;51.114;5.654;2022-12-07T00:43:15;5.40;99.90
40434;DHT22;26146;51.114;5.654;2022-12-07T00:47:16;5.40;99.90
40434;DHT22;26146;51.114;5.654;2022-12-07T00:51:19;5.50;99.90
40434;DHT22;26146;51.114;5.654;2022-12-07T00:55:20;5.40;99.90
40434;DHT22;26146;51.114;5.654;2022-12-07T00:59:21;5.60;99.90
40434;DHT22;26146;51.114;5.654;2022-12-07T01:03:22;5.60;99.90
40434;DHT22;26146;51.114;5.654;2022-12-07T01:07:23;5.60;99.90
40434;DHT22;26146;51.114;5.654;2022-12-07T01:11:26;5.70;99.90
40434;DHT22;26146;51.114;5.654;2022-12-07T01:15:28;5.90;99.90
40434;DHT22;26146;51.114;5.654;2022-12-07T01:19:28;6.00;99.90
40434;DHT22;26146;51.114;5.654;2022-12-07T01:23:34;5.90;99.90
40434;DHT22;26146;51.114;5.654;2022-12-07T01:27:38;6.00;99.90
40434;DHT22;26146;51.114;5.654;2022-12-07T01:31:39;5.90;99.90
40434;DHT22;26146;51.114;5.654;2022-12-07T01:35:39;6.20;99.90
40434;DHT22;26146;51.114;5.654;2022-12-07T01:39:40;6.10;99.90
40434;DHT22;26146;51.114;5.654;2022-12-07T01:44:08;5.90;99.90
40434;DHT22;26146;51.114;5.654;2022-12-07T01:48:11;5.70;99.90
40434;DHT22;26146;51.114;5.654;2022-12-07T01:56:28;5.80;99.90
40434;DHT22;26146;51.114;5.654;2022-12-07T02:00:30;5.80;99.90
40434;DHT22;26146;51.114;5.654;2022-12-07T02:04:31;5.70;99.90
40434;DHT22;26146;51.114;5.654;2022-12-07T02:08:33;5.70;99.90
40434;DHT22;26146;51.114;5.654;2022-12-07T02:12:34;5.60;99.90
40434;DHT22;26146;51.114;5.654;2022-12-07T02:29:08;5.90;99.90
40434;DHT22;26146;51.114;5.654;2022-12-07T02:33:17;5.80;99.90
40434;DHT22;26146;51.114;5.654;2022-12-07T02:37:43;5.80;99.90
40434;DHT22;26146;51.114;5.654;2022-12-07T02:41:52;5.80;99.90
40434;DHT22;26146;51.114;5.654;2022-12-07T02:45:59;5.90;99.90
40434;DHT22;26146;51.114;5.654;2022-12-07T02:50:04;5.80;99.90
40434;DHT22;26146;51.114;5.654;2022-12-07T02:54:12;5.80;99.90
40434;DHT22;26146;51.114;5.654;2022-12-07T02:58:20;5.80;99.90
40434;DHT22;26146;51.114;5.654;2022-12-07T03:02:38;5.80;99.90
40434;DHT22;26146;51.114;5.654;2022-12-07T03:06:46;5.70;99.90
40434;DHT22;26146;51.114;5.654;2022-12-07T03:15:18;5.80;99.90
40434;DHT22;26146;51.114;5.654;2022-12-07T03:19:24;5.80;99.90
40434;DHT22;26146;51.114;5.654;2022-12-07T03:23:27;6.00;99.90
40434;DHT22;26146;51.114;5.654;2022-12-07T03:27:34;6.10;99.90
40434;DHT22;26146;51.114;5.654;2022-12-07T03:31:41;6.10;99.90
40434;DHT22;26146;51.114;5.654;2022-12-07T03:35:50;6.10;99.90
40434;DHT22;26146;51.114;5.654;2022-12-07T03:40:23;6.10;99.90
40434;DHT22;26146;51.114;5.654;2022-12-07T03:44:26;5.90;99.90
40434;DHT22;26146;51.114;5.654;2022-12-07T03:48:42;5.90;99.90
40434;DHT22;26146;51.114;5.654;2022-12-07T03:52:59;5.90;99.90
40434;DHT22;26146;51.114;5.654;2022-12-07T03:57:04;5.80;99.90
40434;DHT22;26146;51.114;5.654;2022-12-07T04:01:06;5.70;99.90
40434;DHT22;26146;51.114;5.654;2022-12-07T04:05:07;5.80;99.90
40434;DHT22;26146;51.114;5.654;2022-12-07T04:09:08;6.00;99.90
40434;DHT22;26146;51.114;5.654;2022-12-07T04:13:09;6.00;99.90
40434;DHT22;26146;51.114;5.654;2022-12-07T04:17:10;5.90;99.90
40434;DHT22;26146;51.114;5.654;2022-12-07T04:21:11;5.90;99.90
40434;DHT22;26146;51.114;5.654;2022-12-07T04:25:12;5.80;99.90
40434;DHT22;26146;51.114;5.654;2022-12-07T04:29:14;5.60;99.90
40434;DHT22;26146;51.114;5.654;2022-12-07T04:33:15;5.50;99.90
40434;DHT22;26146;51.114;5.654;2022-12-07T04:37:16;5.50;99.90
40434;DHT22;26146;51.114;5.654;2022-12-07T04:41:18;5.50;99.90
40434;DHT22;26146;51.114;5.654;2022-12-07T04:45:18;5.60;99.90
40434;DHT22;26146;51.114;5.654;2022-12-07T04:49:20;5.60;99.90
40434;DHT22;26146;51.114;5.654;2022-12-07T04:53:21;5.70;99.90
40434;DHT22;26146;51.114;5.654;2022-12-07T04:57:22;5.80;99.90
40434;DHT22;26146;51.114;5.654;2022-12-07T05:01:23;5.80;99.90
40434;DHT22;26146;51.114;5.654;2022-12-07T05:05:24;5.90;99.90
40434;DHT22;26146;51.114;5.654;2022-12-07T05:09:25;5.80;99.90
40434;DHT22;26146;51.114;5.654;2022-12-07T05:13:28;5.90;99.90
40434;DHT22;26146;51.114;5.654;2022-12-07T05:17:29;5.90;99.90
40434;DHT22;26146;51.114;5.654;2022-12-07T05:21:31;6.00;99.90
40434;DHT22;26146;51.114;5.654;2022-12-07T05:25:32;6.00;99.90
40434;DHT22;26146;51.114;5.654;2022-12-07T05:29:33;6.10;99.90
40434;DHT22;26146;51.114;5.654;2022-12-07T05:33:36;5.90;99.90
40434;DHT22;26146;51.114;5.654;2022-12-07T05:37:37;6.00;99.90
40434;DHT22;26146;51.114;5.654;2022-12-07T05:41:38;6.00;99.90
40434;DHT22;26146;51.114;5.654;2022-12-07T05:45:57;6.00;99.90
40434;DHT22;26146;51.114;5.654;2022-12-07T05:50:03;6.00;99.90
40434;DHT22;26146;51.114;5.654;2022-12-07T05:54:05;6.10;99.90
40434;DHT22;26146;51.114;5.654;2022-12-07T05:58:06;6.20;99.90
40434;DHT22;26146;51.114;5.654;2022-12-07T06:02:25;6.10;99.90
40434;DHT22;26146;51.114;5.654;2022-12-07T06:06:26;5.90;99.90
40434;DHT22;26146;51.114;5.654;2022-12-07T06:10:27;5.80;99.90
40434;DHT22;26146;51.114;5.654;2022-12-07T06:14:28;5.90;99.90
40434;DHT22;26146;51.114;5.654;2022-12-07T06:18:29;6.00;99.90
40434;DHT22;26146;51.114;5.654;2022-12-07T06:22:30;6.10;99.90
40434;DHT22;26146;51.114;5.654;2022-12-07T06:26:33;5.90;99.90
40434;DHT22;26146;51.114;5.654;2022-12-07T06:30:36;5.80;99.90
40434;DHT22;26146;51.114;5.654;2022-12-07T06:34:37;5.90;99.90
40434;DHT22;26146;51.114;5.654;2022-12-07T06:38:39;5.90;99.90
40434;DHT22;26146;51.114;5.654;2022-12-07T06:42:40;5.90;99.90
40434;DHT22;26146;51.114;5.654;2022-12-07T06:46:41;5.90;99.90
40434;DHT22;26146;51.114;5.654;2022-12-07T06:50:45;5.80;99.90
40434;DHT22;26146;51.114;5.654;2022-12-07T06:54:46;5.70;99.90
40434;DHT22;26146;51.114;5.654;2022-12-07T06:58:47;5.70;99.90
40434;DHT22;26146;51.114;5.654;2022-12-07T07:02:48;5.60;99.90
40434;DHT22;26146;51.114;5.654;2022-12-07T07:06:49;5.60;99.90
40434;DHT22;26146;51.114;5.654;2022-12-07T07:10:50;5.60;99.90
40434;DHT22;26146;51.114;5.654;2022-12-07T07:14:51;5.40;99.90
40434;DHT22;26146;51.114;5.654;2022-12-07T07:18:52;5.60;99.90
40434;DHT22;26146;51.114;5.654;2022-12-07T07:22:56;5.50;99.90
40434;DHT22;26146;51.114;5.654;2022-12-07T07:26:57;5.60;99.90
40434;DHT22;26146;51.114;5.654;2022-12-07T07:31:01;5.40;99.90
40434;DHT22;26146;51.114;5.654;2022-12-07T07:35:02;5.50;99.90
40434;DHT22;26146;51.114;5.654;2022-12-07T07:39:03;5.30;99.90
40434;DHT22;26146;51.114;5.654;2022-12-07T07:43:04;5.30;99.90
40434;DHT22;26146;51.114;5.654;2022-12-07T07:47:05;5.30;99.90
40434;DHT22;26146;51.114;5.654;2022-12-07T07:51:07;5.20;99.90
40434;DHT22;26146;51.114;5.654;2022-12-07T07:55:08;5.20;99.90
40434;DHT22;26146;51.114;5.654;2022-12-07T07:59:09;5.20;99.90
40434;DHT22;26146;51.114;5.654;2022-12-07T08:03:10;5.30;99.90
40434;DHT22;26146;51.114;5.654;2022-12-07T08:07:12;5.20;99.90
40434;DHT22;26146;51.114;5.654;2022-12-07T08:11:13;5.30;99.90
40434;DHT22;26146;51.114;5.654;2022-12-07T08:15:14;5.40;99.90
40434;DHT22;26146;51.114;5.654;2022-12-07T08:19:15;5.60;99.90
40434;DHT22;26146;51.114;5.654;2022-12-07T08:23:18;5.80;99.90
40434;DHT22;26146;51.114;5.654;2022-12-07T08:27:22;5.80;99.90
40434;DHT22;26146;51.114;5.654;2022-12-07T08:31:27;5.70;99.90
40434;DHT22;26146;51.114;5.654;2022-12-07T08:35:29;5.70;99.90
40434;DHT22;26146;51.114;5.654;2022-12-07T08:39:30;5.70;99.90
40434;DHT22;26146;51.114;5.654;2022-12-07T08:43:31;5.70;99.90
40434;DHT22;26146;51.114;5.654;2022-12-07T08:47:32;5.60;99.90
40434;DHT22;26146;51.114;5.654;2022-12-07T08:51:34;5.70;99.90
40434;DHT22;26146;51.114;5.654;2022-12-07T08:55:35;5.80;99.90
40434;DHT22;26146;51.114;5.654;2022-12-07T08:59:39;6.10;99.90
40434;DHT22;26146;51.114;5.654;2022-12-07T09:03:40;6.30;99.90
40434;DHT22;26146;51.114;5.654;2022-12-07T09:07:43;6.20;99.90
40434;DHT22;26146;51.114;5.654;2022-12-07T09:11:45;6.20;99.90
40434;DHT22;26146;51.114;5.654;2022-12-07T09:15:46;6.40;99.90
40434;DHT22;26146;51.114;5.654;2022-12-07T09:19:47;6.50;99.90
40434;DHT22;26146;51.114;5.654;2022-12-07T09:23:47;6.60;99.90
40434;DHT22;26146;51.114;5.654;2022-12-07T09:27:55;6.60;99.90
40434;DHT22;26146;51.114;5.654;2022-12-07T09:31:56;6.60;99.90
40434;DHT22;26146;51.114;5.654;2022-12-07T09:35:57;6.70;99.90
40434;DHT22;26146;51.114;5.654;2022-12-07T09:39:58;6.90;99.90
40434;DHT22;26146;51.114;5.654;2022-12-07T09:44:14;6.90;99.90
40434;DHT22;26146;51.114;5.654;2022-12-07T09:48:25;7.00;99.90
40434;DHT22;26146;51.114;5.654;2022-12-07T09:52:28;7.10;99.90
40434;DHT22;26146;51.114;5.654;2022-12-07T09:56:29;7.20;99.90
40434;DHT22;26146;51.114;5.654;2022-12-07T10:00:31;7.40;99.90
40434;DHT22;26146;51.114;5.654;2022-12-07T10:04:32;7.70;99.90
40434;DHT22;26146;51.114;5.654;2022-12-07T10:08:36;7.80;99.90
40434;DHT22;26146;51.114;5.654;2022-12-07T10:12:57;7.80;99.90
40434;DHT22;26146;51.114;5.654;2022-12-07T10:16:58;7.80;99.90
40434;DHT22;26146;51.114;5.654;2022-12-07T10:21:18;8.00;99.90
40434;DHT22;26146;51.114;5.654;2022-12-07T10:25:22;7.70;99.90
40434;DHT22;26146;51.114;5.654;2022-12-07T10:29:37;7.80;99.90
40434;DHT22;26146;51.114;5.654;2022-12-07T10:33:58;8.10;99.90
40434;DHT22;26146;51.114;5.654;2022-12-07T10:37:59;8.10;99.90
40434;DHT22;26146;51.114;5.654;2022-12-07T10:42:03;8.20;99.90
40434;DHT22;26146;51.114;5.654;2022-12-07T11:03:48;7.70;99.90
40434;DHT22;26146;51.114;5.654;2022-12-07T11:08:16;7.60;99.90
40434;DHT22;26146;51.114;5.654;2022-12-07T11:16:55;7.50;99.90
40434;DHT22;26146;51.114;5.654;2022-12-07T11:21:07;7.50;99.90
40434;DHT22;26146;51.114;5.654;2022-12-07T11:25:23;7.60;99.90
40434;DHT22;26146;51.114;5.654;2022-12-07T11:34:04;7.90;99.90
40434;DHT22;26146;51.114;5.654;2022-12-07T11:38:13;8.10;99.90
40434;DHT22;26146;51.114;5.654;2022-12-07T11:42:31;8.10;99.90
40434;DHT22;26146;51.114;5.654;2022-12-07T11:50:50;8.20;99.90
40434;DHT22;26146;51.114;5.654;2022-12-07T11:54:53;8.40;99.90
40434;DHT22;26146;51.114;5.654;2022-12-07T11:59:02;8.50;99.90
40434;DHT22;26146;51.114;5.654;2022-12-07T12:03:14;8.40;99.90
40434;DHT22;26146;51.114;5.654;2022-12-07T12:07:19;8.40;99.90
40434;DHT22;26146;51.114;5.654;2022-12-07T12:11:36;8.30;99.90
40434;DHT22;26146;51.114;5.654;2022-12-07T12:20:28;8.40;99.90
40434;DHT22;26146;51.114;5.654;2022-12-07T12:24:32;8.30;99.90
40434;DHT22;26146;51.114;5.654;2022-12-07T12:28:48;8.60;99.90
40434;DHT22;26146;51.114;5.654;2022-12-07T12:32:51;8.70;99.90
40434;DHT22;26146;51.114;5.654;2022-12-07T12:36:55;8.70;99.90
40434;DHT22;26146;51.114;5.654;2022-12-07T12:40:57;8.60;99.90
40434;DHT22;26146;51.114;5.654;2022-12-07T12:45:25;8.80;99.90
40434;DHT22;26146;51.114;5.654;2022-12-07T12:53:27;8.70;99.90
40434;DHT22;26146;51.114;5.654;2022-12-07T12:57:30;8.40;99.90
40434;DHT22;26146;51.114;5.654;2022-12-07T13:01:43;8.30;99.90
40434;DHT22;26146;51.114;5.654;2022-12-07T13:05:44;8.30;99.90
40434;DHT22;26146;51.114;5.654;2022-12-07T13:09:45;8.30;99.90
40434;DHT22;26146;51.114;5.654;2022-12-07T13:13:46;8.40;99.90
40434;DHT22;26146;51.114;5.654;2022-12-07T13:21:57;8.30;99.90
40434;DHT22;26146;51.114;5.654;2022-12-07T13:30:46;8.20;99.90
40434;DHT22;26146;51.114;5.654;2022-12-07T13:34:48;8.20;99.90
40434;DHT22;26146;51.114;5.654;2022-12-07T13:38:59;8.10;99.90
40434;DHT22;26146;51.114;5.654;2022-12-07T13:43:03;7.90;99.90
40434;DHT22;26146;51.114;5.654;2022-12-07T13:51:34;8.20;99.90
40434;DHT22;26146;51.114;5.654;2022-12-07T13:55:45;8.00;99.90
40434;DHT22;26146;51.114;5.654;2022-12-07T13:59:49;8.10;99.90
40434;DHT22;26146;51.114;5.654;2022-12-07T14:03:51;8.10;99.90
40434;DHT22;26146;51.114;5.654;2022-12-07T14:11:57;8.10;99.90
40434;DHT22;26146;51.114;5.654;2022-12-07T14:15:59;8.00;99.90
40434;DHT22;26146;51.114;5.654;2022-12-07T14:20:03;8.00;99.90
40434;DHT22;26146;51.114;5.654;2022-12-07T14:28:27;7.80;99.90
40434;DHT22;26146;51.114;5.654;2022-12-07T14:32:29;7.90;99.90
40434;DHT22;26146;51.114;5.654;2022-12-07T14:36:31;8.10;99.90
40434;DHT22;26146;51.114;5.654;2022-12-07T14:40:32;8.20;99.90
40434;DHT22;26146;51.114;5.654;2022-12-07T14:44:33;8.10;99.90
40434;DHT22;26146;51.114;5.654;2022-12-07T14:48:36;7.80;99.90
40434;DHT22;26146;51.114;5.654;2022-12-07T14:52:39;7.80;99.90
40434;DHT22;26146;51.114;5.654;2022-12-07T14:56:40;7.80;99.90
40434;DHT22;26146;51.114;5.654;2022-12-07T15:00:41;7.80;99.90
40434;DHT22;26146;51.114;5.654;2022-12-07T15:04:42;7.80;99.90
40434;DHT22;26146;51.114;5.654;2022-12-07T15:08:45;7.70;99.90
40434;DHT22;26146;51.114;5.654;2022-12-07T15:12:47;7.60;99.90
40434;DHT22;26146;51.114;5.654;2022-12-07T15:16:48;7.60;99.90
40434;DHT22;26146;51.114;5.654;2022-12-07T15:20:50;7.60;99.90
40434;DHT22;26146;51.114;5.654;2022-12-07T15:24:51;7.50;99.90
40434;DHT22;26146;51.114;5.654;2022-12-07T15:28:53;7.30;99.90
40434;DHT22;26146;51.114;5.654;2022-12-07T15:32:55;7.10;99.90
40434;DHT22;26146;51.114;5.654;2022-12-07T15:36:56;6.80;99.90
40434;DHT22;26146;51.114;5.654;2022-12-07T15:40:59;6.80;99.90
40434;DHT22;26146;51.114;5.654;2022-12-07T15:45:00;6.70;99.90
40434;DHT22;26146;51.114;5.654;2022-12-07T15:49:08;6.80;99.90
40434;DHT22;26146;51.114;5.654;2022-12-07T15:53:10;7.00;99.90
40434;DHT22;26146;51.114;5.654;2022-12-07T15:57:11;7.10;99.90
40434;DHT22;26146;51.114;5.654;2022-12-07T16:01:17;6.80;99.90
40434;DHT22;26146;51.114;5.654;2022-12-07T16:05:19;6.80;99.90
40434;DHT22;26146;51.114;5.654;2022-12-07T16:09:20;7.00;99.90
40434;DHT22;26146;51.114;5.654;2022-12-07T16:13:21;7.10;99.90
40434;DHT22;26146;51.114;5.654;2022-12-07T16:17:23;7.20;99.90
40434;DHT22;26146;51.114;5.654;2022-12-07T16:21:24;7.20;99.90
40434;DHT22;26146;51.114;5.654;2022-12-07T16:25:25;7.30;99.90
40434;DHT22;26146;51.114;5.654;2022-12-07T16:29:26;7.10;99.90
40434;DHT22;26146;51.114;5.654;2022-12-07T16:33:27;6.90;99.90
40434;DHT22;26146;51.114;5.654;2022-12-07T16:37:27;6.80;99.90
40434;DHT22;26146;51.114;5.654;2022-12-07T16:41:29;6.70;99.90
40434;DHT22;26146;51.114;5.654;2022-12-07T16:45:30;6.80;99.90
40434;DHT22;26146;51.114;5.654;2022-12-07T16:49:31;6.90;99.90
40434;DHT22;26146;51.114;5.654;2022-12-07T16:53:35;6.80;99.90
40434;DHT22;26146;51.114;5.654;2022-12-07T16:57:36;6.80;99.90
40434;DHT22;26146;51.114;5.654;2022-12-07T17:01:37;6.70;99.90
40434;DHT22;26146;51.114;5.654;2022-12-07T17:05:43;6.80;99.90
40434;DHT22;26146;51.114;5.654;2022-12-07T17:09:44;6.70;99.90
40434;DHT22;26146;51.114;5.654;2022-12-07T17:13:45;6.60;99.90
40434;DHT22;26146;51.114;5.654;2022-12-07T17:18:05;6.70;99.90
40434;DHT22;26146;51.114;5.654;2022-12-07T17:22:06;6.70;99.90
40434;DHT22;26146;51.114;5.654;2022-12-07T17:26:18;6.70;99.90
40434;DHT22;26146;51.114;5.654;2022-12-07T17:30:19;6.60;99.90
40434;DHT22;26146;51.114;5.654;2022-12-07T17:34:20;6.40;99.90
40434;DHT22;26146;51.114;5.654;2022-12-07T17:38:21;6.60;99.90
40434;DHT22;26146;51.114;5.654;2022-12-07T17:42:23;6.60;99.90
40434;DHT22;26146;51.114;5.654;2022-12-07T17:46:49;6.50;99.90
40434;DHT22;26146;51.114;5.654;2022-12-07T17:50:59;6.70;99.90
40434;DHT22;26146;51.114;5.654;2022-12-07T17:55:32;6.60;99.90
40434;DHT22;26146;51.114;5.654;2022-12-07T17:59:44;6.70;99.90
40434;DHT22;26146;51.114;5.654;2022-12-07T18:03:55;7.00;99.90
40434;DHT22;26146;51.114;5.654;2022-12-07T18:08:02;6.70;99.90
40434;DHT22;26146;51.114;5.654;2022-12-07T18:12:11;6.60;99.90
40434;DHT22;26146;51.114;5.654;2022-12-07T18:16:15;6.60;99.90
40434;DHT22;26146;51.114;5.654;2022-12-07T18:20:20;6.60;99.90
40434;DHT22;26146;51.114;5.654;2022-12-07T18:24:21;6.60;99.90
40434;DHT22;26146;51.114;5.654;2022-12-07T18:28:22;6.60;99.90
40434;DHT22;26146;51.114;5.654;2022-12-07T18:32:23;6.60;99.90
40434;DHT22;26146;51.114;5.654;2022-12-07T18:36:24;6.40;99.90
40434;DHT22;26146;51.114;5.654;2022-12-07T18:40:25;6.60;99.90
40434;DHT22;26146;51.114;5.654;2022-12-07T18:44:28;6.60;99.90
40434;DHT22;26146;51.114;5.654;2022-12-07T18:48:32;6.60;99.90
40434;DHT22;26146;51.114;5.654;2022-12-07T18:52:33;6.50;99.90
40434;DHT22;26146;51.114;5.654;2022-12-07T18:56:34;6.20;99.90
40434;DHT22;26146;51.114;5.654;2022-12-07T19:00:35;6.20;99.90
40434;DHT22;26146;51.114;5.654;2022-12-07T19:04:36;6.30;99.90
40434;DHT22;26146;51.114;5.654;2022-12-07T19:08:37;6.50;99.90
40434;DHT22;26146;51.114;5.654;2022-12-07T19:12:38;6.40;99.90
40434;DHT22;26146;51.114;5.654;2022-12-07T19:16:41;6.40;99.90
40434;DHT22;26146;51.114;5.654;2022-12-07T19:20:42;6.60;99.90
40434;DHT22;26146;51.114;5.654;2022-12-07T19:24:44;6.60;99.90
40434;DHT22;26146;51.114;5.654;2022-12-07T19:28:49;6.60;99.90
40434;DHT22;26146;51.114;5.654;2022-12-07T19:32:50;6.70;99.90
40434;DHT22;26146;51.114;5.654;2022-12-07T19:36:51;6.70;99.90
40434;DHT22;26146;51.114;5.654;2022-12-07T19:40:54;6.70;99.90
40434;DHT22;26146;51.114;5.654;2022-12-07T19:44:55;6.60;99.90
40434;DHT22;26146;51.114;5.654;2022-12-07T19:48:56;6.50;99.90
40434;DHT22;26146;51.114;5.654;2022-12-07T19:52:57;6.50;99.90
40434;DHT22;26146;51.114;5.654;2022-12-07T19:56:58;6.60;99.90
40434;DHT22;26146;51.114;5.654;2022-12-07T20:01:03;6.50;99.90
40434;DHT22;26146;51.114;5.654;2022-12-07T20:05:05;6.40;99.90
40434;DHT22;26146;51.114;5.654;2022-12-07T20:09:06;6.50;99.90
40434;DHT22;26146;51.114;5.654;2022-12-07T20:13:08;6.40;99.90
40434;DHT22;26146;51.114;5.654;2022-12-07T20:17:27;6.40;99.90
40434;DHT22;26146;51.114;5.654;2022-12-07T20:21:28;6.50;99.90
40434;DHT22;26146;51.114;5.654;2022-12-07T20:25:29;6.50;99.90
40434;DHT22;26146;51.114;5.654;2022-12-07T20:29:31;6.40;99.90
40434;DHT22;26146;51.114;5.654;2022-12-07T20:33:32;6.20;99.90
40434;DHT22;26146;51.114;5.654;2022-12-07T20:37:33;6.30;99.90
40434;DHT22;26146;51.114;5.654;2022-12-07T20:41:34;6.30;99.90
40434;DHT22;26146;51.114;5.654;2022-12-07T20:45:54;6.30;99.90
40434;DHT22;26146;51.114;5.654;2022-12-07T20:49:55;6.20;99.90
40434;DHT22;26146;51.114;5.654;2022-12-07T20:53:56;6.40;99.90
40434;DHT22;26146;51.114;5.654;2022-12-07T20:57:57;6.50;99.90
40434;DHT22;26146;51.114;5.654;2022-12-07T21:01:58;6.40;99.90
40434;DHT22;26146;51.114;5.654;2022-12-07T21:06:02;6.60;99.90
40434;DHT22;26146;51.114;5.654;2022-12-07T21:10:04;6.40;99.90
40434;DHT22;26146;51.114;5.654;2022-12-07T21:14:06;6.50;99.90
40434;DHT22;26146;51.114;5.654;2022-12-07T21:18:07;6.50;99.90
40434;DHT22;26146;51.114;5.654;2022-12-07T21:22:08;6.60;99.90
40434;DHT22;26146;51.114;5.654;2022-12-07T21:26:11;6.60;99.90
40434;DHT22;26146;51.114;5.654;2022-12-07T21:30:12;6.50;99.90
40434;DHT22;26146;51.114;5.654;2022-12-07T21:34:13;6.50;99.90
40434;DHT22;26146;51.114;5.654;2022-12-07T21:38:14;6.40;99.90
40434;DHT22;26146;51.114;5.654;2022-12-07T21:42:15;6.50;99.90
40434;DHT22;26146;51.114;5.654;2022-12-07T21:46:17;6.40;99.90
40434;DHT22;26146;51.114;5.654;2022-12-07T21:50:18;6.10;99.90
40434;DHT22;26146;51.114;5.654;2022-12-07T21:54:20;6.00;99.90
40434;DHT22;26146;51.114;5.654;2022-12-07T21:58:20;6.00;99.90
40434;DHT22;26146;51.114;5.654;2022-12-07T22:02:21;5.90;99.90
40434;DHT22;26146;51.114;5.654;2022-12-07T22:06:25;6.00;99.90
40434;DHT22;26146;51.114;5.654;2022-12-07T22:10:26;6.20;99.90
40434;DHT22;26146;51.114;5.654;2022-12-07T22:14:30;6.30;99.90
40434;DHT22;26146;51.114;5.654;2022-12-07T22:18:50;6.50;99.90
40434;DHT22;26146;51.114;5.654;2022-12-07T22:22:51;6.70;99.90
40434;DHT22;26146;51.114;5.654;2022-12-07T22:26:52;6.60;99.90
40434;DHT22;26146;51.114;5.654;2022-12-07T22:30:53;6.60;99.90
40434;DHT22;26146;51.114;5.654;2022-12-07T22:34:54;6.60;99.90
40434;DHT22;26146;51.114;5.654;2022-12-07T22:38:55;6.50;99.90
40434;DHT22;26146;51.114;5.654;2022-12-07T22:42:57;6.60;99.90
40434;DHT22;26146;51.114;5.654;2022-12-07T22:46:58;6.70;99.90
40434;DHT22;26146;51.114;5.654;2022-12-07T22:51:00;6.60;99.90
40434;DHT22;26146;51.114;5.654;2022-12-07T22:55:01;6.60;99.90
40434;DHT22;26146;51.114;5.654;2022-12-07T22:59:06;6.50;99.90
40434;DHT22;26146;51.114;5.654;2022-12-07T23:03:07;6.50;99.90
40434;DHT22;26146;51.114;5.654;2022-12-07T23:07:08;6.40;99.90
40434;DHT22;26146;51.114;5.654;2022-12-07T23:11:11;6.40;99.90
40434;DHT22;26146;51.114;5.654;2022-12-07T23:15:36;6.40;99.90
40434;DHT22;26146;51.114;5.654;2022-12-07T23:19:37;6.60;99.90
40434;DHT22;26146;51.114;5.654;2022-12-07T23:23:40;6.60;99.90
40434;DHT22;26146;51.114;5.654;2022-12-07T23:27:41;6.60;99.90
40434;DHT22;26146;51.114;5.654;2022-12-07T23:31:42;6.50;99.90
40434;DHT22;26146;51.114;5.654;2022-12-07T23:35:43;6.70;99.90
40434;DHT22;26146;51.114;5.654;2022-12-07T23:39:44;6.60;99.90
40434;DHT22;26146;51.114;5.654;2022-12-07T23:43:46;6.60;99.90
40434;DHT22;26146;51.114;5.654;2022-12-07T23:47:49;6.60;99.90
40434;DHT22;26146;51.114;5.654;2022-12-07T23:51:50;6.50;99.90
40434;DHT22;26146;51.114;5.654;2022-12-07T23:55:51;6.40;99.90
40434;DHT22;26146;51.114;5.654;2022-12-07T23:59:52;6.30;99.90
